map of RJNY home
RJNY - Airport
Location
City:  Shizuhama, Shizuoka, Japan
ICAO:RJNY

Details
Type:Airport (Aerodrome, Airfield)
Use:Military
Latitude:34°48'46"N (34.812778)
Longitude:138°17'53"E (138.298056)
Datum:WGS 1984
Elevation:23 ft (7 m)
Variation:7.46°W (WMM2015 magnetic declination)
-0.06° annual change
Runways:1
Longest:4920 × 150 ft (1500 × 45.5 m), paved

Time
Time Zone:UTC+9
Local Time:

Weather
METAR:RJNY 210608Z 27017G27KT 9999 FEW025 11/M07 Q1008 RMK 1CU025 A2978

Related Locations
Nearby:
Farthest:SNPV: 11853 mi / 19075 km
Mostardas [Solidão], RS, BR

Find:

   beyond  
but within

Other Information
Maps:
NOTAMs:
Links:
Sources:

  
  • flag of Japan
  • flag of Shizuoka
  

Sectional Chart

Flight Planning
at skyvector.com

Satellite Image

Google Maps Satellite view

 

Copyright © 2004-2019 Karl L. Swartz. All rights reserved.
The Great Circle Mapper name and logo are trademarks of the Great Circle Mapper.
All other trademarks mentioned herein belong to their respective owners.
Please see credits for attibutions and further copyright information.

  Follow gcmap on Facebook Follow gcmap on Twitter Follow gcmap on Google+ GCmap on LinkedIn

hCard Microformat

Geo Microformat